sensor_id;sensor_type;location;lat;lon;timestamp;pressure;altitude;pressure_sealevel;temperature;humidity
49194;BME280;35029;50.804;12.866;2024-01-16T00:01:20;96297.88;;;-1.35;100.00
49194;BME280;35029;50.804;12.866;2024-01-16T00:03:45;96315.00;;;-1.24;100.00
49194;BME280;35029;50.804;12.866;2024-01-16T00:06:11;96307.19;;;-1.24;100.00
49194;BME280;35029;50.804;12.866;2024-01-16T00:08:36;96316.03;;;-1.09;100.00
49194;BME280;35029;50.804;12.866;2024-01-16T00:11:02;96308.25;;;-1.09;100.00
49194;BME280;35029;50.804;12.866;2024-01-16T00:13:28;96317.19;;;-1.03;100.00
49194;BME280;35029;50.804;12.866;2024-01-16T00:15:54;96323.38;;;-0.96;100.00
49194;BME280;35029;50.804;12.866;2024-01-16T00:18:19;96329.91;;;-0.92;100.00
49194;BME280;35029;50.804;12.866;2024-01-16T00:20:45;96324.06;;;-0.94;100.00
49194;BME280;35029;50.804;12.866;2024-01-16T00:23:10;96322.75;;;-0.98;100.00
49194;BME280;35029;50.804;12.866;2024-01-16T00:25:36;96322.03;;;-1.08;100.00
49194;BME280;35029;50.804;12.866;2024-01-16T00:28:02;96331.50;;;-0.99;100.00
49194;BME280;35029;50.804;12.866;2024-01-16T00:30:27;96329.56;;;-0.97;100.00
49194;BME280;35029;50.804;12.866;2024-01-16T00:32:53;96320.69;;;-1.21;100.00
49194;BME280;35029;50.804;12.866;2024-01-16T00:35:18;96346.78;;;-1.04;100.00
49194;BME280;35029;50.804;12.866;2024-01-16T00:37:44;96338.81;;;-1.03;100.00
49194;BME280;35029;50.804;12.866;2024-01-16T00:40:10;96335.06;;;-1.00;100.00
49194;BME280;35029;50.804;12.866;2024-01-16T00:42:36;96336.03;;;-1.01;100.00
49194;BME280;35029;50.804;12.866;2024-01-16T00:45:02;96365.31;;;-0.99;100.00
49194;BME280;35029;50.804;12.866;2024-01-16T00:47:28;96342.69;;;-1.07;100.00
49194;BME280;35029;50.804;12.866;2024-01-16T00:49:53;96360.78;;;-0.97;100.00
49194;BME280;35029;50.804;12.866;2024-01-16T00:52:19;96365.53;;;-0.92;100.00
49194;BME280;35029;50.804;12.866;2024-01-16T00:54:45;96348.75;;;-0.98;100.00
49194;BME280;35029;50.804;12.866;2024-01-16T00:57:11;96368.91;;;-1.00;100.00
49194;BME280;35029;50.804;12.866;2024-01-16T00:59:37;96378.97;;;-0.97;100.00
49194;BME280;35029;50.804;12.866;2024-01-16T01:02:03;96371.13;;;-1.05;100.00
49194;BME280;35029;50.804;12.866;2024-01-16T01:04:29;96381.28;;;-0.94;100.00
49194;BME280;35029;50.804;12.866;2024-01-16T01:06:55;96386.16;;;-0.91;100.00
49194;BME280;35029;50.804;12.866;2024-01-16T01:09:21;96385.34;;;-0.99;100.00
49194;BME280;35029;50.804;12.866;2024-01-16T01:11:46;96396.38;;;-0.97;100.00
49194;BME280;35029;50.804;12.866;2024-01-16T01:14:12;96401.94;;;-0.92;100.00
49194;BME280;35029;50.804;12.866;2024-01-16T01:16:37;96396.53;;;-0.99;100.00
49194;BME280;35029;50.804;12.866;2024-01-16T01:19:03;96411.06;;;-0.88;100.00
49194;BME280;35029;50.804;12.866;2024-01-16T01:21:29;96402.56;;;-0.98;100.00
49194;BME280;35029;50.804;12.866;2024-01-16T01:23:54;96402.72;;;-1.00;100.00
49194;BME280;35029;50.804;12.866;2024-01-16T01:26:20;96423.56;;;-0.92;100.00
49194;BME280;35029;50.804;12.866;2024-01-16T01:28:45;96426.88;;;-0.81;100.00
49194;BME280;35029;50.804;12.866;2024-01-16T01:31:11;96429.00;;;-0.77;100.00
49194;BME280;35029;50.804;12.866;2024-01-16T01:33:39;96427.88;;;-0.74;100.00
49194;BME280;35029;50.804;12.866;2024-01-16T01:36:05;96434.03;;;-0.75;100.00
49194;BME280;35029;50.804;12.866;2024-01-16T01:38:31;96418.03;;;-0.89;100.00
49194;BME280;35029;50.804;12.866;2024-01-16T01:40:56;96442.34;;;-0.72;100.00
49194;BME280;35029;50.804;12.866;2024-01-16T01:43:23;96433.41;;;-0.69;100.00
49194;BME280;35029;50.804;12.866;2024-01-16T01:46:18;96444.34;;;-0.65;100.00
49194;BME280;35029;50.804;12.866;2024-01-16T01:48:57;96439.94;;;-0.65;98.68
49194;BME280;35029;50.804;12.866;2024-01-16T01:51:23;96439.63;;;-0.62;98.90
49194;BME280;35029;50.804;12.866;2024-01-16T01:53:50;96453.31;;;-0.60;98.53
49194;BME280;35029;50.804;12.866;2024-01-16T01:56:18;96375.50;;;-1.14;96.94
49194;BME280;35029;50.804;12.866;2024-01-16T01:58:46;96445.91;;;-0.73;96.91
49194;BME280;35029;50.804;12.866;2024-01-16T02:01:13;96456.41;;;-0.56;97.51
49194;BME280;35029;50.804;12.866;2024-01-16T02:03:44;96454.44;;;-0.62;96.11
49194;BME280;35029;50.804;12.866;2024-01-16T02:06:13;96461.75;;;-0.58;96.72
49194;BME280;35029;50.804;12.866;2024-01-16T02:08:42;96468.59;;;-0.57;96.03
49194;BME280;35029;50.804;12.866;2024-01-16T02:11:08;96457.84;;;-0.62;95.97
49194;BME280;35029;50.804;12.866;2024-01-16T02:13:35;96458.97;;;-0.64;96.21
49194;BME280;35029;50.804;12.866;2024-01-16T02:16:01;96465.69;;;-0.54;97.60
49194;BME280;35029;50.804;12.866;2024-01-16T02:18:28;96474.94;;;-0.59;94.86
49194;BME280;35029;50.804;12.866;2024-01-16T02:20:59;96468.59;;;-0.57;95.29
49194;BME280;35029;50.804;12.866;2024-01-16T02:23:29;96468.94;;;-0.60;96.19
49194;BME280;35029;50.804;12.866;2024-01-16T02:25:56;96459.25;;;-0.76;97.03
49194;BME280;35029;50.804;12.866;2024-01-16T02:28:21;96477.06;;;-0.55;96.55
49194;BME280;35029;50.804;12.866;2024-01-16T02:30:47;96471.84;;;-0.55;95.39
49194;BME280;35029;50.804;12.866;2024-01-16T02:33:12;96472.34;;;-0.59;93.79
49194;BME280;35029;50.804;12.866;2024-01-16T02:35:39;96487.19;;;-0.52;94.54
49194;BME280;35029;50.804;12.866;2024-01-16T02:38:05;96463.66;;;-0.76;94.02
49194;BME280;35029;50.804;12.866;2024-01-16T02:40:30;96493.19;;;-0.51;94.13
49194;BME280;35029;50.804;12.866;2024-01-16T02:42:56;96469.84;;;-0.69;94.78
49194;BME280;35029;50.804;12.866;2024-01-16T02:45:22;96493.97;;;-0.59;95.93
49194;BME280;35029;50.804;12.866;2024-01-16T02:47:48;96487.78;;;-0.58;95.12
49194;BME280;35029;50.804;12.866;2024-01-16T02:50:13;96492.19;;;-0.58;95.73
49194;BME280;35029;50.804;12.866;2024-01-16T02:52:39;96508.00;;;-0.52;95.61
49194;BME280;35029;50.804;12.866;2024-01-16T02:55:05;96499.53;;;-0.54;96.38
49194;BME280;35029;50.804;12.866;2024-01-16T02:57:31;96502.97;;;-0.53;93.90
49194;BME280;35029;50.804;12.866;2024-01-16T02:59:56;96505.56;;;-0.53;94.41
49194;BME280;35029;50.804;12.866;2024-01-16T03:02:22;96511.22;;;-0.58;95.93
49194;BME280;35029;50.804;12.866;2024-01-16T03:04:49;96493.13;;;-0.68;96.31
49194;BME280;35029;50.804;12.866;2024-01-16T03:07:15;96494.63;;;-0.57;95.93
49194;BME280;35029;50.804;12.866;2024-01-16T03:09:41;96505.88;;;-0.48;97.66
49194;BME280;35029;50.804;12.866;2024-01-16T03:12:06;96514.19;;;-0.53;96.48
49194;BME280;35029;50.804;12.866;2024-01-16T03:14:32;96519.06;;;-0.49;96.74
49194;BME280;35029;50.804;12.866;2024-01-16T03:17:03;96515.97;;;-0.53;95.51
49194;BME280;35029;50.804;12.866;2024-01-16T03:19:28;96515.31;;;-0.55;95.56
49194;BME280;35029;50.804;12.866;2024-01-16T03:21:54;96489.66;;;-0.76;95.17
49194;BME280;35029;50.804;12.866;2024-01-16T03:24:20;96534.84;;;-0.51;94.32
49194;BME280;35029;50.804;12.866;2024-01-16T03:26:45;96518.72;;;-0.55;95.14
49194;BME280;35029;50.804;12.866;2024-01-16T03:29:11;96523.66;;;-0.43;95.66
49194;BME280;35029;50.804;12.866;2024-01-16T03:31:37;96516.25;;;-0.56;94.78
49194;BME280;35029;50.804;12.866;2024-01-16T03:34:02;96520.88;;;-0.50;95.46
49194;BME280;35029;50.804;12.866;2024-01-16T03:36:28;96525.09;;;-0.49;96.37
49194;BME280;35029;50.804;12.866;2024-01-16T03:38:54;96531.75;;;-0.46;95.75
49194;BME280;35029;50.804;12.866;2024-01-16T03:41:19;96543.53;;;-0.42;94.33
49194;BME280;35029;50.804;12.866;2024-01-16T03:43:45;96539.44;;;-0.45;94.95
49194;BME280;35029;50.804;12.866;2024-01-16T03:46:11;96536.16;;;-0.47;95.79
49194;BME280;35029;50.804;12.866;2024-01-16T03:48:37;96524.75;;;-0.54;96.08
49194;BME280;35029;50.804;12.866;2024-01-16T03:51:02;96542.03;;;-0.45;95.35
49194;BME280;35029;50.804;12.866;2024-01-16T03:53:28;96535.66;;;-0.51;96.16
49194;BME280;35029;50.804;12.866;2024-01-16T03:55:53;96547.38;;;-0.46;95.46
49194;BME280;35029;50.804;12.866;2024-01-16T03:58:19;96559.06;;;-0.51;95.10
49194;BME280;35029;50.804;12.866;2024-01-16T04:00:45;96551.94;;;-0.48;96.27
49194;BME280;35029;50.804;12.866;2024-01-16T04:03:11;96532.97;;;-0.67;95.60
49194;BME280;35029;50.804;12.866;2024-01-16T04:05:37;96550.19;;;-0.40;94.23
49194;BME280;35029;50.804;12.866;2024-01-16T04:08:02;96557.72;;;-0.37;95.02
49194;BME280;35029;50.804;12.866;2024-01-16T04:10:28;96538.56;;;-0.54;92.79
49194;BME280;35029;50.804;12.866;2024-01-16T04:12:53;96563.53;;;-0.43;93.64
49194;BME280;35029;50.804;12.866;2024-01-16T04:15:19;96564.03;;;-0.39;93.46
49194;BME280;35029;50.804;12.866;2024-01-16T04:17:44;96565.81;;;-0.40;92.26
49194;BME280;35029;50.804;12.866;2024-01-16T04:20:10;96573.78;;;-0.41;93.32
49194;BME280;35029;50.804;12.866;2024-01-16T04:22:36;96573.63;;;-0.40;93.77
49194;BME280;35029;50.804;12.866;2024-01-16T04:25:03;96576.22;;;-0.40;92.44
49194;BME280;35029;50.804;12.866;2024-01-16T04:27:33;96569.41;;;-0.41;93.27
49194;BME280;35029;50.804;12.866;2024-01-16T04:29:59;96567.09;;;-0.44;93.27
49194;BME280;35029;50.804;12.866;2024-01-16T04:32:24;96554.97;;;-0.61;93.90
49194;BME280;35029;50.804;12.866;2024-01-16T04:34:50;96570.00;;;-0.47;94.24
49194;BME280;35029;50.804;12.866;2024-01-16T04:37:15;96580.91;;;-0.52;94.42
49194;BME280;35029;50.804;12.866;2024-01-16T04:39:41;96601.03;;;-0.54;94.97
49194;BME280;35029;50.804;12.866;2024-01-16T04:42:06;96597.31;;;-0.51;96.69
49194;BME280;35029;50.804;12.866;2024-01-16T04:44:32;96596.84;;;-0.46;94.54
49194;BME280;35029;50.804;12.866;2024-01-16T04:46:57;96596.03;;;-0.47;94.56
49194;BME280;35029;50.804;12.866;2024-01-16T04:49:23;96596.72;;;-0.45;94.89
49194;BME280;35029;50.804;12.866;2024-01-16T04:51:49;96603.25;;;-0.41;95.30
49194;BME280;35029;50.804;12.866;2024-01-16T04:54:14;96588.19;;;-0.55;94.96
49194;BME280;35029;50.804;12.866;2024-01-16T04:56:40;96596.72;;;-0.45;93.83
49194;BME280;35029;50.804;12.866;2024-01-16T04:59:05;96603.53;;;-0.44;94.09
49194;BME280;35029;50.804;12.866;2024-01-16T05:01:31;96611.81;;;-0.48;92.89
49194;BME280;35029;50.804;12.866;2024-01-16T05:03:56;96610.38;;;-0.43;93.46
49194;BME280;35029;50.804;12.866;2024-01-16T05:06:22;96590.84;;;-0.47;94.75
49194;BME280;35029;50.804;12.866;2024-01-16T05:08:48;96606.31;;;-0.45;94.75
49194;BME280;35029;50.804;12.866;2024-01-16T05:11:14;96614.59;;;-0.50;94.90
49194;BME280;35029;50.804;12.866;2024-01-16T05:13:39;96629.69;;;-0.54;99.63
49194;BME280;35029;50.804;12.866;2024-01-16T05:16:05;96631.75;;;-0.65;100.00
49194;BME280;35029;50.804;12.866;2024-01-16T05:18:31;96621.34;;;-0.83;100.00
49194;BME280;35029;50.804;12.866;2024-01-16T05:20:59;96625.88;;;-0.86;100.00
49194;BME280;35029;50.804;12.866;2024-01-16T05:23:25;96626.16;;;-0.89;100.00
49194;BME280;35029;50.804;12.866;2024-01-16T05:25:50;96624.03;;;-0.93;100.00
49194;BME280;35029;50.804;12.866;2024-01-16T05:28:16;96631.09;;;-0.86;100.00
49194;BME280;35029;50.804;12.866;2024-01-16T05:30:43;96606.72;;;-1.03;100.00
49194;BME280;35029;50.804;12.866;2024-01-16T05:33:09;96618.59;;;-1.00;100.00
49194;BME280;35029;50.804;12.866;2024-01-16T05:35:34;96638.22;;;-0.88;100.00
49194;BME280;35029;50.804;12.866;2024-01-16T05:38:00;96647.59;;;-0.95;100.00
49194;BME280;35029;50.804;12.866;2024-01-16T05:40:25;96653.13;;;-0.98;100.00
49194;BME280;35029;50.804;12.866;2024-01-16T05:42:52;96648.88;;;-0.99;100.00
49194;BME280;35029;50.804;12.866;2024-01-16T05:45:18;96643.81;;;-1.00;100.00
49194;BME280;35029;50.804;12.866;2024-01-16T05:47:43;96648.94;;;-0.91;100.00
49194;BME280;35029;50.804;12.866;2024-01-16T05:50:09;96652.34;;;-0.90;100.00
49194;BME280;35029;50.804;12.866;2024-01-16T05:52:36;96649.25;;;-0.94;100.00
49194;BME280;35029;50.804;12.866;2024-01-16T05:55:02;96661.56;;;-0.96;100.00
49194;BME280;35029;50.804;12.866;2024-01-16T05:57:29;96652.81;;;-0.95;100.00
49194;BME280;35029;50.804;12.866;2024-01-16T05:59:58;96672.94;;;-0.97;100.00
49194;BME280;35029;50.804;12.866;2024-01-16T06:02:24;96661.78;;;-0.89;100.00
49194;BME280;35029;50.804;12.866;2024-01-16T06:04:50;96668.56;;;-0.96;100.00
49194;BME280;35029;50.804;12.866;2024-01-16T06:07:16;96662.03;;;-1.00;100.00
49194;BME280;35029;50.804;12.866;2024-01-16T06:09:41;96667.06;;;-0.99;100.00
49194;BME280;35029;50.804;12.866;2024-01-16T06:12:08;96666.63;;;-0.94;100.00
49194;BME280;35029;50.804;12.866;2024-01-16T06:14:34;96670.06;;;-0.94;100.00
49194;BME280;35029;50.804;12.866;2024-01-16T06:17:01;96673.31;;;-0.92;100.00
49194;BME280;35029;50.804;12.866;2024-01-16T06:19:28;96680.47;;;-0.94;100.00
49194;BME280;35029;50.804;12.866;2024-01-16T06:21:53;96686.16;;;-0.90;99.83
49194;BME280;35029;50.804;12.866;2024-01-16T06:24:19;96680.31;;;-0.92;98.70
49194;BME280;35029;50.804;12.866;2024-01-16T06:26:45;96645.81;;;-1.12;98.06
49194;BME280;35029;50.804;12.866;2024-01-16T06:29:10;96652.06;;;-1.05;97.94
49194;BME280;35029;50.804;12.866;2024-01-16T06:31:37;96679.34;;;-0.91;97.93
49194;BME280;35029;50.804;12.866;2024-01-16T06:34:03;96677.56;;;-0.91;98.73
49194;BME280;35029;50.804;12.866;2024-01-16T06:36:29;96687.81;;;-0.89;97.20
49194;BME280;35029;50.804;12.866;2024-01-16T06:38:54;96679.34;;;-0.91;97.20
49194;BME280;35029;50.804;12.866;2024-01-16T06:41:20;96673.69;;;-1.05;97.70
49194;BME280;35029;50.804;12.866;2024-01-16T06:43:46;96685.28;;;-0.99;96.62
49194;BME280;35029;50.804;12.866;2024-01-16T06:46:12;96683.50;;;-1.16;96.22
49194;BME280;35029;50.804;12.866;2024-01-16T06:48:37;96684.75;;;-1.21;96.37
49194;BME280;35029;50.804;12.866;2024-01-16T06:51:04;96693.59;;;-1.13;96.51
49194;BME280;35029;50.804;12.866;2024-01-16T06:53:30;96692.56;;;-1.21;96.27
49194;BME280;35029;50.804;12.866;2024-01-16T06:55:55;96686.09;;;-1.16;96.42
49194;BME280;35029;50.804;12.866;2024-01-16T06:58:21;96686.00;;;-1.25;96.80
49194;BME280;35029;50.804;12.866;2024-01-16T07:00:47;96702.22;;;-1.13;96.86
49194;BME280;35029;50.804;12.866;2024-01-16T07:03:13;96707.72;;;-1.16;95.38
49194;BME280;35029;50.804;12.866;2024-01-16T07:05:40;96704.31;;;-1.16;95.37
49194;BME280;35029;50.804;12.866;2024-01-16T07:08:09;96712.63;;;-1.31;95.32
49194;BME280;35029;50.804;12.866;2024-01-16T07:10:35;96690.09;;;-1.40;96.67
49194;BME280;35029;50.804;12.866;2024-01-16T07:13:01;96724.94;;;-1.33;96.45
49194;BME280;35029;50.804;12.866;2024-01-16T07:15:28;96709.16;;;-1.49;94.98
49194;BME280;35029;50.804;12.866;2024-01-16T07:17:53;96723.66;;;-1.47;95.98
49194;BME280;35029;50.804;12.866;2024-01-16T07:20:20;96723.81;;;-1.58;95.97
49194;BME280;35029;50.804;12.866;2024-01-16T07:22:46;96728.53;;;-1.44;96.34
49194;BME280;35029;50.804;12.866;2024-01-16T07:25:12;96746.50;;;-1.50;95.19
49194;BME280;35029;50.804;12.866;2024-01-16T07:27:37;96744.44;;;-1.47;96.03
49194;BME280;35029;50.804;12.866;2024-01-16T07:30:07;96738.84;;;-1.52;95.58
49194;BME280;35029;50.804;12.866;2024-01-16T07:32:33;96744.09;;;-1.62;95.32
49194;BME280;35029;50.804;12.866;2024-01-16T07:34:59;96742.69;;;-1.56;95.18
49194;BME280;35029;50.804;12.866;2024-01-16T07:37:24;96745.16;;;-1.55;95.87
49194;BME280;35029;50.804;12.866;2024-01-16T07:39:50;96743.78;;;-1.59;95.45
49194;BME280;35029;50.804;12.866;2024-01-16T07:42:15;96759.38;;;-1.59;94.60
49194;BME280;35029;50.804;12.866;2024-01-16T07:44:42;96742.16;;;-1.60;94.97
49194;BME280;35029;50.804;12.866;2024-01-16T07:47:08;96756.75;;;-1.49;95.36
49194;BME280;35029;50.804;12.866;2024-01-16T07:49:34;96769.56;;;-1.38;94.81
49194;BME280;35029;50.804;12.866;2024-01-16T07:51:59;96769.44;;;-1.36;94.92
49194;BME280;35029;50.804;12.866;2024-01-16T07:54:25;96780.47;;;-1.34;93.87
49194;BME280;35029;50.804;12.866;2024-01-16T07:56:51;96774.44;;;-1.25;93.90
49194;BME280;35029;50.804;12.866;2024-01-16T07:59:19;96770.88;;;-1.24;93.03
49194;BME280;35029;50.804;12.866;2024-01-16T08:02:04;96785.72;;;-1.16;93.02
49194;BME280;35029;50.804;12.866;2024-01-16T08:04:32;96779.38;;;-1.04;92.01
49194;BME280;35029;50.804;12.866;2024-01-16T08:06:59;96783.91;;;-1.06;92.54
49194;BME280;35029;50.804;12.866;2024-01-16T08:09:25;96779.25;;;-1.02;92.65
49194;BME280;35029;50.804;12.866;2024-01-16T08:11:50;96785.84;;;-1.08;92.16
49194;BME280;35029;50.804;12.866;2024-01-16T08:14:16;96784.47;;;-0.84;91.24
49194;BME280;35029;50.804;12.866;2024-01-16T08:16:41;96796.44;;;-0.73;90.41
49194;BME280;35029;50.804;12.866;2024-01-16T08:19:07;96791.53;;;-0.76;91.92
49194;BME280;35029;50.804;12.866;2024-01-16T08:21:33;96783.94;;;-0.88;93.40
49194;BME280;35029;50.804;12.866;2024-01-16T08:23:59;96768.69;;;-1.00;92.23
49194;BME280;35029;50.804;12.866;2024-01-16T08:26:24;96795.09;;;-0.95;91.80
49194;BME280;35029;50.804;12.866;2024-01-16T08:28:50;96800.59;;;-0.80;92.25
49194;BME280;35029;50.804;12.866;2024-01-16T08:31:17;96785.41;;;-0.85;92.47
49194;BME280;35029;50.804;12.866;2024-01-16T08:33:44;96798.50;;;-0.77;92.06
49194;BME280;35029;50.804;12.866;2024-01-16T08:36:09;96798.75;;;-0.70;92.34
49194;BME280;35029;50.804;12.866;2024-01-16T08:38:35;96801.56;;;-0.81;91.80
49194;BME280;35029;50.804;12.866;2024-01-16T08:41:00;96814.06;;;-0.67;92.63
49194;BME280;35029;50.804;12.866;2024-01-16T08:43:26;96809.63;;;-0.57;92.17
49194;BME280;35029;50.804;12.866;2024-01-16T08:45:51;96811.19;;;-0.64;92.38
49194;BME280;35029;50.804;12.866;2024-01-16T08:48:17;96805.81;;;-0.62;92.00
49194;BME280;35029;50.804;12.866;2024-01-16T08:50:42;96807.66;;;-0.73;90.70
49194;BME280;35029;50.804;12.866;2024-01-16T08:53:08;96814.91;;;-0.66;90.82
49194;BME280;35029;50.804;12.866;2024-01-16T08:55:34;96784.31;;;-0.82;91.95
49194;BME280;35029;50.804;12.866;2024-01-16T08:57:59;96821.44;;;-0.62;91.87
49194;BME280;35029;50.804;12.866;2024-01-16T09:00:25;96817.97;;;-0.53;92.18
49194;BME280;35029;50.804;12.866;2024-01-16T09:02:50;96827.03;;;-0.57;91.86
49194;BME280;35029;50.804;12.866;2024-01-16T09:05:17;96825.81;;;-0.63;91.88
49194;BME280;35029;50.804;12.866;2024-01-16T09:07:44;96825.38;;;-0.40;92.36
49194;BME280;35029;50.804;12.866;2024-01-16T09:10:10;96828.28;;;-0.43;90.93
49194;BME280;35029;50.804;12.866;2024-01-16T09:12:36;96836.59;;;-0.40;91.96
49194;BME280;35029;50.804;12.866;2024-01-16T09:15:02;96842.81;;;-0.41;92.24
49194;BME280;35029;50.804;12.866;2024-01-16T09:17:27;96844.94;;;-0.36;91.69
49194;BME280;35029;50.804;12.866;2024-01-16T09:19:52;96818.38;;;-0.40;92.53
49194;BME280;35029;50.804;12.866;2024-01-16T09:22:18;96834.44;;;-0.08;92.92
49194;BME280;35029;50.804;12.866;2024-01-16T09:24:44;96840.63;;;-0.09;91.31
49194;BME280;35029;50.804;12.866;2024-01-16T09:27:09;96842.88;;;-0.14;92.09
49194;BME280;35029;50.804;12.866;2024-01-16T09:29:36;96817.25;;;-0.37;91.34
49194;BME280;35029;50.804;12.866;2024-01-16T09:32:02;96851.22;;;-0.11;91.09
49194;BME280;35029;50.804;12.866;2024-01-16T09:34:28;96846.13;;;-0.12;91.83
49194;BME280;35029;50.804;12.866;2024-01-16T09:36:54;96845.28;;;0.05;90.42
49194;BME280;35029;50.804;12.866;2024-01-16T09:39:19;96845.72;;;-0.26;90.54
49194;BME280;35029;50.804;12.866;2024-01-16T09:41:45;96815.03;;;-0.32;92.02
49194;BME280;35029;50.804;12.866;2024-01-16T09:44:10;96843.53;;;-0.12;91.67
49194;BME280;35029;50.804;12.866;2024-01-16T09:46:39;96827.91;;;-0.30;91.91
49194;BME280;35029;50.804;12.866;2024-01-16T09:49:14;96846.13;;;-0.12;91.46
49194;BME280;35029;50.804;12.866;2024-01-16T09:51:40;96842.56;;;-0.11;91.25
49194;BME280;35029;50.804;12.866;2024-01-16T09:54:05;96845.22;;;-0.03;91.81
49194;BME280;35029;50.804;12.866;2024-01-16T09:56:35;96850.00;;;0.02;91.07
49194;BME280;35029;50.804;12.866;2024-01-16T09:59:06;96843.88;;;0.11;90.25
49194;BME280;35029;50.804;12.866;2024-01-16T10:01:34;96842.09;;;0.11;89.40
49194;BME280;35029;50.804;12.866;2024-01-16T10:04:01;96847.94;;;0.31;89.37
49194;BME280;35029;50.804;12.866;2024-01-16T10:06:27;96831.69;;;0.38;88.31
49194;BME280;35029;50.804;12.866;2024-01-16T10:08:53;96847.94;;;0.58;87.31
49194;BME280;35029;50.804;12.866;2024-01-16T10:11:18;96848.25;;;0.55;86.67
49194;BME280;35029;50.804;12.866;2024-01-16T10:13:44;96846.63;;;0.54;87.42
49194;BME280;35029;50.804;12.866;2024-01-16T10:16:10;96846.19;;;0.40;87.60
49194;BME280;35029;50.804;12.866;2024-01-16T10:18:36;96845.03;;;0.35;87.45
49194;BME280;35029;50.804;12.866;2024-01-16T10:21:04;96835.50;;;0.25;87.01
49194;BME280;35029;50.804;12.866;2024-01-16T10:23:31;96844.44;;;0.49;87.64
49194;BME280;35029;50.804;12.866;2024-01-16T10:26:10;96843.22;;;0.35;87.05
49194;BME280;35029;50.804;12.866;2024-01-16T10:28:37;96840.13;;;0.31;88.06
49194;BME280;35029;50.804;12.866;2024-01-16T10:31:04;96838.69;;;0.37;88.02
49194;BME280;35029;50.804;12.866;2024-01-16T10:33:30;96838.75;;;0.45;86.50
49194;BME280;35029;50.804;12.866;2024-01-16T10:36:16;96841.78;;;0.41;86.29
49194;BME280;35029;50.804;12.866;2024-01-16T10:38:43;96841.75;;;0.59;85.75
49194;BME280;35029;50.804;12.866;2024-01-16T10:41:16;96829.06;;;0.64;84.91
49194;BME280;35029;50.804;12.866;2024-01-16T10:44:07;96842.50;;;0.77;85.33
49194;BME280;35029;50.804;12.866;2024-01-16T10:46:33;96841.16;;;0.73;85.05
49194;BME280;35029;50.804;12.866;2024-01-16T10:49:03;96838.50;;;0.65;84.13
49194;BME280;35029;50.804;12.866;2024-01-16T10:51:30;96833.69;;;0.78;85.06
49194;BME280;35029;50.804;12.866;2024-01-16T10:54:14;96832.25;;;0.84;84.17
49194;BME280;35029;50.804;12.866;2024-01-16T10:56:45;96837.63;;;0.82;85.32
49194;BME280;35029;50.804;12.866;2024-01-16T10:59:18;96842.25;;;0.89;84.56
49194;BME280;35029;50.804;12.866;2024-01-16T11:01:48;96832.06;;;0.77;83.15
49194;BME280;35029;50.804;12.866;2024-01-16T11:04:18;96846.16;;;0.93;83.60
49194;BME280;35029;50.804;12.866;2024-01-16T11:06:47;96831.13;;;0.87;82.50
49194;BME280;35029;50.804;12.866;2024-01-16T11:09:13;96832.00;;;1.04;83.99
49194;BME280;35029;50.804;12.866;2024-01-16T11:11:46;96844.97;;;1.22;82.42
49194;BME280;35029;50.804;12.866;2024-01-16T11:14:13;96832.84;;;1.04;80.65
49194;BME280;35029;50.804;12.866;2024-01-16T11:16:39;96838.69;;;1.06;81.24
49194;BME280;35029;50.804;12.866;2024-01-16T11:19:07;96845.19;;;1.37;82.33
49194;BME280;35029;50.804;12.866;2024-01-16T11:21:34;96828.41;;;1.47;82.40
49194;BME280;35029;50.804;12.866;2024-01-16T11:24:01;96836.72;;;1.59;79.33
49194;BME280;35029;50.804;12.866;2024-01-16T11:26:34;96831.28;;;1.36;79.81
49194;BME280;35029;50.804;12.866;2024-01-16T11:31:54;96828.38;;;1.39;84.80
49194;BME280;35029;50.804;12.866;2024-01-16T11:37:08;96833.09;;;1.44;85.14
49194;BME280;35029;50.804;12.866;2024-01-16T11:39:34;96809.09;;;1.40;85.25
49194;BME280;35029;50.804;12.866;2024-01-16T11:42:00;96826.06;;;1.36;84.25
49194;BME280;35029;50.804;12.866;2024-01-16T11:47:09;96821.38;;;1.73;86.78
49194;BME280;35029;50.804;12.866;2024-01-16T11:49:36;96829.22;;;1.64;81.17
49194;BME280;35029;50.804;12.866;2024-01-16T11:52:02;96822.34;;;1.63;84.79
49194;BME280;35029;50.804;12.866;2024-01-16T11:54:28;96826.63;;;1.73;82.50
49194;BME280;35029;50.804;12.866;2024-01-16T12:00:04;96823.09;;;1.31;78.29
49194;BME280;35029;50.804;12.866;2024-01-16T12:03:13;96823.94;;;1.31;78.75
49194;BME280;35029;50.804;12.866;2024-01-16T12:05:42;96814.25;;;1.15;77.81
49194;BME280;35029;50.804;12.866;2024-01-16T12:08:09;96818.69;;;1.23;78.60
49194;BME280;35029;50.804;12.866;2024-01-16T12:10:46;96824.28;;;1.28;78.25
49194;BME280;35029;50.804;12.866;2024-01-16T12:13:15;96828.94;;;1.08;77.35
49194;BME280;35029;50.804;12.866;2024-01-16T12:15:41;96819.09;;;1.02;78.65
49194;BME280;35029;50.804;12.866;2024-01-16T12:18:07;96821.41;;;0.97;77.33
49194;BME280;35029;50.804;12.866;2024-01-16T12:20:35;96810.75;;;0.90;79.88
49194;BME280;35029;50.804;12.866;2024-01-16T12:23:08;96811.78;;;1.06;79.20
49194;BME280;35029;50.804;12.866;2024-01-16T12:25:37;96814.41;;;1.14;79.36
49194;BME280;35029;50.804;12.866;2024-01-16T12:28:04;96804.31;;;1.11;79.19
49194;BME280;35029;50.804;12.866;2024-01-16T12:30:32;96790.75;;;1.15;79.82
49194;BME280;35029;50.804;12.866;2024-01-16T12:33:18;96798.63;;;1.24;79.15
49194;BME280;35029;50.804;12.866;2024-01-16T12:35:46;96801.19;;;1.07;77.48
49194;BME280;35029;50.804;12.866;2024-01-16T12:38:13;96800.75;;;1.20;77.68
49194;BME280;35029;50.804;12.866;2024-01-16T12:40:44;96808.72;;;1.27;76.12
49194;BME280;35029;50.804;12.866;2024-01-16T12:43:11;96776.22;;;1.05;76.67
49194;BME280;35029;50.804;12.866;2024-01-16T12:45:37;96772.94;;;0.94;77.75
49194;BME280;35029;50.804;12.866;2024-01-16T12:48:03;96789.63;;;1.10;77.61
49194;BME280;35029;50.804;12.866;2024-01-16T12:50:30;96800.19;;;1.00;79.13
49194;BME280;35029;50.804;12.866;2024-01-16T12:53:07;96774.84;;;0.84;80.49
49194;BME280;35029;50.804;12.866;2024-01-16T12:55:35;96758.63;;;0.64;78.51
49194;BME280;35029;50.804;12.866;2024-01-16T12:58:20;96775.97;;;0.81;79.70
49194;BME280;35029;50.804;12.866;2024-01-16T13:00:50;96766.81;;;0.69;79.17